sensor_id;sensor_type;location;lat;lon;timestamp;pressure;altitude;pressure_sealevel;temperature;humidity
8298;BME280;4187;42.778;23.242;2022-11-25T00:01:03;95066.00;;;5.83;100.00
8298;BME280;4187;42.778;23.242;2022-11-25T00:03:31;95075.41;;;5.85;100.00
8298;BME280;4187;42.778;23.242;2022-11-25T00:06:07;95029.59;;;5.58;100.00
8298;BME280;4187;42.778;23.242;2022-11-25T00:08:35;95051.97;;;5.73;100.00
8298;BME280;4187;42.778;23.242;2022-11-25T00:11:04;95079.09;;;5.83;100.00
8298;BME280;4187;42.778;23.242;2022-11-25T00:13:32;95082.06;;;5.89;100.00
8298;BME280;4187;42.778;23.242;2022-11-25T00:16:02;95083.50;;;5.93;100.00
8298;BME280;4187;42.778;23.242;2022-11-25T00:18:30;95091.59;;;5.90;100.00
8298;BME280;4187;42.778;23.242;2022-11-25T00:21:04;95085.97;;;5.95;100.00
8298;BME280;4187;42.778;23.242;2022-11-25T00:23:32;95083.63;;;5.92;100.00
8298;BME280;4187;42.778;23.242;2022-11-25T00:26:05;95080.28;;;5.90;100.00
8298;BME280;4187;42.778;23.242;2022-11-25T00:28:33;95082.78;;;5.91;100.00
8298;BME280;4187;42.778;23.242;2022-11-25T00:31:06;95061.13;;;5.78;100.00
8298;BME280;4187;42.778;23.242;2022-11-25T00:33:33;95084.69;;;5.89;100.00
8298;BME280;4187;42.778;23.242;2022-11-25T00:36:01;95082.56;;;5.94;100.00
8298;BME280;4187;42.778;23.242;2022-11-25T00:38:30;95079.19;;;5.92;100.00
8298;BME280;4187;42.778;23.242;2022-11-25T00:40:57;95082.91;;;5.90;100.00
8298;BME280;4187;42.778;23.242;2022-11-25T00:43:38;95087.66;;;5.96;100.00
8298;BME280;4187;42.778;23.242;2022-11-25T00:46:24;95088.38;;;5.98;100.00
8298;BME280;4187;42.778;23.242;2022-11-25T00:48:52;95090.13;;;5.97;100.00
8298;BME280;4187;42.778;23.242;2022-11-25T00:51:20;95094.34;;;6.00;100.00
8298;BME280;4187;42.778;23.242;2022-11-25T00:53:48;95089.34;;;5.97;100.00
8298;BME280;4187;42.778;23.242;2022-11-25T00:56:16;95093.50;;;5.99;100.00
8298;BME280;4187;42.778;23.242;2022-11-25T00:58:43;95094.19;;;6.01;100.00
8298;BME280;4187;42.778;23.242;2022-11-25T01:01:12;95097.66;;;6.02;100.00
8298;BME280;4187;42.778;23.242;2022-11-25T01:03:41;95093.59;;;5.98;100.00
8298;BME280;4187;42.778;23.242;2022-11-25T01:06:09;95091.97;;;5.97;100.00
8298;BME280;4187;42.778;23.242;2022-11-25T01:08:37;95095.88;;;6.03;100.00
8298;BME280;4187;42.778;23.242;2022-11-25T01:11:06;95080.25;;;6.01;100.00
8298;BME280;4187;42.778;23.242;2022-11-25T01:13:35;95090.03;;;5.99;100.00
8298;BME280;4187;42.778;23.242;2022-11-25T01:16:03;95088.50;;;5.96;100.00
8298;BME280;4187;42.778;23.242;2022-11-25T01:18:32;95088.59;;;5.95;100.00
8298;BME280;4187;42.778;23.242;2022-11-25T01:21:06;95086.59;;;5.98;100.00
8298;BME280;4187;42.778;23.242;2022-11-25T01:23:34;95089.19;;;5.98;100.00
8298;BME280;4187;42.778;23.242;2022-11-25T01:26:04;95085.97;;;5.95;100.00
8298;BME280;4187;42.778;23.242;2022-11-25T01:28:32;95078.97;;;5.95;100.00
8298;BME280;4187;42.778;23.242;2022-11-25T01:31:03;95080.88;;;5.93;100.00
8298;BME280;4187;42.778;23.242;2022-11-25T01:33:31;95080.03;;;5.93;100.00
8298;BME280;4187;42.778;23.242;2022-11-25T01:36:02;95086.81;;;5.95;100.00
8298;BME280;4187;42.778;23.242;2022-11-25T01:38:34;95074.09;;;5.91;100.00
8298;BME280;4187;42.778;23.242;2022-11-25T01:41:03;95088.97;;;6.01;100.00
8298;BME280;4187;42.778;23.242;2022-11-25T01:43:30;95083.84;;;6.00;100.00
8298;BME280;4187;42.778;23.242;2022-11-25T01:46:04;95082.03;;;6.00;100.00
8298;BME280;4187;42.778;23.242;2022-11-25T01:48:38;95073.09;;;6.03;100.00
8298;BME280;4187;42.778;23.242;2022-11-25T01:51:17;94771.69;;;4.14;100.00
8298;BME280;4187;42.778;23.242;2022-11-25T01:53:48;95060.31;;;5.89;100.00
8298;BME280;4187;42.778;23.242;2022-11-25T01:56:17;95070.16;;;5.96;100.00
8298;BME280;4187;42.778;23.242;2022-11-25T01:58:47;95020.56;;;5.62;100.00
8298;BME280;4187;42.778;23.242;2022-11-25T02:01:16;95073.97;;;5.92;100.00
8298;BME280;4187;42.778;23.242;2022-11-25T02:03:48;95076.03;;;5.89;100.00
8298;BME280;4187;42.778;23.242;2022-11-25T02:06:21;95078.63;;;6.00;100.00
8298;BME280;4187;42.778;23.242;2022-11-25T02:08:55;95077.78;;;5.88;100.00
8298;BME280;4187;42.778;23.242;2022-11-25T02:11:25;95079.19;;;5.92;100.00
8298;BME280;4187;42.778;23.242;2022-11-25T02:13:53;95082.56;;;5.94;100.00
8298;BME280;4187;42.778;23.242;2022-11-25T02:16:20;95084.69;;;5.89;100.00
8298;BME280;4187;42.778;23.242;2022-11-25T02:18:49;95090.50;;;5.93;100.00
8298;BME280;4187;42.778;23.242;2022-11-25T02:21:21;95087.53;;;5.97;100.00
8298;BME280;4187;42.778;23.242;2022-11-25T02:23:56;95094.13;;;5.92;100.00
8298;BME280;4187;42.778;23.242;2022-11-25T02:26:26;95094.44;;;5.87;100.00
8298;BME280;4187;42.778;23.242;2022-11-25T02:28:55;95098.59;;;5.79;100.00
8298;BME280;4187;42.778;23.242;2022-11-25T02:31:23;95105.28;;;5.72;100.00
8298;BME280;4187;42.778;23.242;2022-11-25T02:33:51;95097.78;;;5.67;100.00
8298;BME280;4187;42.778;23.242;2022-11-25T02:36:20;95097.06;;;5.65;100.00
8298;BME280;4187;42.778;23.242;2022-11-25T02:38:52;95088.97;;;5.68;100.00
8298;BME280;4187;42.778;23.242;2022-11-25T02:41:26;95105.41;;;5.70;100.00
8298;BME280;4187;42.778;23.242;2022-11-25T02:43:55;95087.66;;;5.74;100.00
8298;BME280;4187;42.778;23.242;2022-11-25T02:46:25;95099.66;;;5.76;100.00
8298;BME280;4187;42.778;23.242;2022-11-25T02:48:55;95092.06;;;5.73;100.00
8298;BME280;4187;42.778;23.242;2022-11-25T02:51:25;95065.41;;;5.57;100.00
8298;BME280;4187;42.778;23.242;2022-11-25T02:53:53;95097.28;;;5.73;100.00
8298;BME280;4187;42.778;23.242;2022-11-25T02:56:23;95094.44;;;5.76;100.00
8298;BME280;4187;42.778;23.242;2022-11-25T02:58:53;95038.06;;;5.50;100.00
8298;BME280;4187;42.778;23.242;2022-11-25T03:01:21;95091.84;;;5.87;100.00
8298;BME280;4187;42.778;23.242;2022-11-25T03:03:48;95097.88;;;5.77;100.00
8298;BME280;4187;42.778;23.242;2022-11-25T03:06:16;95092.78;;;5.75;100.00
8298;BME280;4187;42.778;23.242;2022-11-25T03:08:43;95098.72;;;5.77;100.00
8298;BME280;4187;42.778;23.242;2022-11-25T03:11:11;95102.19;;;5.78;100.00
8298;BME280;4187;42.778;23.242;2022-11-25T03:13:39;95100.41;;;5.78;100.00
8298;BME280;4187;42.778;23.242;2022-11-25T03:16:08;95104.06;;;5.76;100.00
8298;BME280;4187;42.778;23.242;2022-11-25T03:18:36;95106.69;;;5.76;100.00
8298;BME280;4187;42.778;23.242;2022-11-25T03:21:05;95110.13;;;5.76;100.00
8298;BME280;4187;42.778;23.242;2022-11-25T03:23:33;95116.44;;;5.74;100.00
8298;BME280;4187;42.778;23.242;2022-11-25T03:26:04;95109.06;;;5.68;100.00
8298;BME280;4187;42.778;23.242;2022-11-25T03:28:32;95107.41;;;5.67;100.00
8298;BME280;4187;42.778;23.242;2022-11-25T03:31:00;95122.28;;;5.66;100.00
8298;BME280;4187;42.778;23.242;2022-11-25T03:33:29;95119.53;;;5.68;100.00
8298;BME280;4187;42.778;23.242;2022-11-25T03:35:57;95100.16;;;5.48;100.00
8298;BME280;4187;42.778;23.242;2022-11-25T03:38:25;95124.66;;;5.58;100.00
8298;BME280;4187;42.778;23.242;2022-11-25T03:41:02;95125.59;;;5.57;100.00
8298;BME280;4187;42.778;23.242;2022-11-25T03:43:29;95130.50;;;5.51;100.00
8298;BME280;4187;42.778;23.242;2022-11-25T03:45:57;95132.50;;;5.47;100.00
8298;BME280;4187;42.778;23.242;2022-11-25T03:48:26;95129.91;;;5.47;100.00
8298;BME280;4187;42.778;23.242;2022-11-25T03:50:56;95141.19;;;5.48;100.00
8298;BME280;4187;42.778;23.242;2022-11-25T03:53:24;95138.69;;;5.46;100.00
8298;BME280;4187;42.778;23.242;2022-11-25T03:55:52;95134.28;;;5.47;100.00
8298;BME280;4187;42.778;23.242;2022-11-25T03:58:20;95141.78;;;5.40;100.00
8298;BME280;4187;42.778;23.242;2022-11-25T04:00:48;95145.47;;;5.37;100.00
8298;BME280;4187;42.778;23.242;2022-11-25T04:03:15;95149.97;;;5.35;100.00
8298;BME280;4187;42.778;23.242;2022-11-25T04:05:43;95127.16;;;5.26;100.00
8298;BME280;4187;42.778;23.242;2022-11-25T04:08:12;95160.94;;;5.29;100.00
8298;BME280;4187;42.778;23.242;2022-11-25T04:10:40;95158.53;;;5.26;100.00
8298;BME280;4187;42.778;23.242;2022-11-25T04:13:08;95160.91;;;5.18;100.00
8298;BME280;4187;42.778;23.242;2022-11-25T04:15:34;95161.69;;;5.08;100.00
8298;BME280;4187;42.778;23.242;2022-11-25T04:18:01;95162.19;;;5.13;100.00
8298;BME280;4187;42.778;23.242;2022-11-25T04:20:30;95158.03;;;5.10;100.00
8298;BME280;4187;42.778;23.242;2022-11-25T04:22:58;95163.34;;;5.09;100.00
8298;BME280;4187;42.778;23.242;2022-11-25T04:25:27;95161.06;;;4.93;100.00
8298;BME280;4187;42.778;23.242;2022-11-25T04:27:55;95164.03;;;4.89;100.00
8298;BME280;4187;42.778;23.242;2022-11-25T04:30:23;95171.41;;;4.95;100.00
8298;BME280;4187;42.778;23.242;2022-11-25T04:32:50;95164.03;;;4.89;100.00
8298;BME280;4187;42.778;23.242;2022-11-25T04:35:18;95163.84;;;4.79;100.00
8298;BME280;4187;42.778;23.242;2022-11-25T04:37:46;95169.69;;;4.82;100.00
8298;BME280;4187;42.778;23.242;2022-11-25T04:40:13;95173.72;;;4.75;100.00
8298;BME280;4187;42.778;23.242;2022-11-25T04:42:43;95178.59;;;4.80;100.00
8298;BME280;4187;42.778;23.242;2022-11-25T04:45:12;95175.41;;;4.88;100.00
8298;BME280;4187;42.778;23.242;2022-11-25T04:47:40;95182.19;;;4.90;100.00
8298;BME280;4187;42.778;23.242;2022-11-25T04:50:11;95183.47;;;4.84;100.00
8298;BME280;4187;42.778;23.242;2022-11-25T04:52:39;95190.47;;;4.84;100.00
8298;BME280;4187;42.778;23.242;2022-11-25T04:55:07;95186.94;;;4.85;100.00
8298;BME280;4187;42.778;23.242;2022-11-25T04:57:36;95196.06;;;4.79;100.00
8298;BME280;4187;42.778;23.242;2022-11-25T05:00:07;95195.91;;;4.70;100.00
8298;BME280;4187;42.778;23.242;2022-11-25T05:02:34;95198.41;;;4.71;100.00
8298;BME280;4187;42.778;23.242;2022-11-25T05:05:02;95212.19;;;4.73;100.00
8298;BME280;4187;42.778;23.242;2022-11-25T05:07:30;95211.13;;;4.76;100.00
8298;BME280;4187;42.778;23.242;2022-11-25T05:09:59;95215.53;;;4.75;100.00
8298;BME280;4187;42.778;23.242;2022-11-25T05:12:27;95214.34;;;4.79;100.00
8298;BME280;4187;42.778;23.242;2022-11-25T05:14:56;95223.75;;;4.82;100.00
8298;BME280;4187;42.778;23.242;2022-11-25T05:17:27;95225.09;;;4.88;100.00
8298;BME280;4187;42.778;23.242;2022-11-25T05:19:55;95232.50;;;4.94;100.00
8298;BME280;4187;42.778;23.242;2022-11-25T05:22:24;95222.13;;;4.92;100.00
8298;BME280;4187;42.778;23.242;2022-11-25T05:24:52;95248.09;;;5.06;100.00
8298;BME280;4187;42.778;23.242;2022-11-25T05:27:21;95251.56;;;5.07;100.00
8298;BME280;4187;42.778;23.242;2022-11-25T05:29:49;95260.13;;;5.09;100.00
8298;BME280;4187;42.778;23.242;2022-11-25T05:32:17;95270.97;;;5.15;100.00
8298;BME280;4187;42.778;23.242;2022-11-25T05:34:46;95270.63;;;5.20;100.00
8298;BME280;4187;42.778;23.242;2022-11-25T05:37:14;95273.75;;;5.25;100.00
8298;BME280;4187;42.778;23.242;2022-11-25T05:39:42;95271.59;;;5.19;100.00
8298;BME280;4187;42.778;23.242;2022-11-25T05:42:09;95276.38;;;5.25;100.00
8298;BME280;4187;42.778;23.242;2022-11-25T05:44:37;95284.00;;;5.28;100.00
8298;BME280;4187;42.778;23.242;2022-11-25T05:47:04;95285.22;;;5.35;100.00
8298;BME280;4187;42.778;23.242;2022-11-25T05:49:32;95291.53;;;5.32;100.00
8298;BME280;4187;42.778;23.242;2022-11-25T05:52:01;95299.97;;;5.36;100.00
8298;BME280;4187;42.778;23.242;2022-11-25T05:54:29;95299.28;;;5.45;100.00
8298;BME280;4187;42.778;23.242;2022-11-25T05:56:57;95280.94;;;5.34;100.00
8298;BME280;4187;42.778;23.242;2022-11-25T05:59:25;95303.25;;;5.51;100.00
8298;BME280;4187;42.778;23.242;2022-11-25T06:01:54;95306.22;;;5.57;100.00
8298;BME280;4187;42.778;23.242;2022-11-25T06:04:22;95294.44;;;5.63;100.00
8298;BME280;4187;42.778;23.242;2022-11-25T06:06:50;95307.53;;;5.63;100.00
8298;BME280;4187;42.778;23.242;2022-11-25T06:09:18;95303.84;;;5.65;100.00
8298;BME280;4187;42.778;23.242;2022-11-25T06:11:46;95311.13;;;5.62;100.00
8298;BME280;4187;42.778;23.242;2022-11-25T06:14:14;95303.94;;;5.53;100.00
8298;BME280;4187;42.778;23.242;2022-11-25T06:16:43;95319.06;;;5.60;100.00
8298;BME280;4187;42.778;23.242;2022-11-25T06:19:10;95315.41;;;5.63;100.00
8298;BME280;4187;42.778;23.242;2022-11-25T06:21:37;95312.09;;;5.72;100.00
8298;BME280;4187;42.778;23.242;2022-11-25T06:24:05;95324.56;;;5.68;100.00
8298;BME280;4187;42.778;23.242;2022-11-25T06:26:34;95324.47;;;5.70;100.00
8298;BME280;4187;42.778;23.242;2022-11-25T06:29:01;95339.56;;;5.66;100.00
8298;BME280;4187;42.778;23.242;2022-11-25T06:31:28;95336.03;;;5.67;100.00
8298;BME280;4187;42.778;23.242;2022-11-25T06:33:56;95348.31;;;5.78;100.00
8298;BME280;4187;42.778;23.242;2022-11-25T06:36:23;95353.09;;;5.84;100.00
8298;BME280;4187;42.778;23.242;2022-11-25T06:38:52;95354.78;;;5.85;100.00
8298;BME280;4187;42.778;23.242;2022-11-25T06:41:21;95356.47;;;5.86;100.00
8298;BME280;4187;42.778;23.242;2022-11-25T06:43:51;95362.81;;;5.82;100.00
8298;BME280;4187;42.778;23.242;2022-11-25T06:46:19;95357.09;;;5.77;100.00
8298;BME280;4187;42.778;23.242;2022-11-25T06:48:46;95374.66;;;5.87;100.00
8298;BME280;4187;42.778;23.242;2022-11-25T06:51:15;95375.50;;;5.88;100.00
8298;BME280;4187;42.778;23.242;2022-11-25T06:53:42;95377.06;;;5.90;100.00
8298;BME280;4187;42.778;23.242;2022-11-25T06:56:12;95352.06;;;5.86;100.00
8298;BME280;4187;42.778;23.242;2022-11-25T06:58:40;95384.25;;;5.99;100.00
8298;BME280;4187;42.778;23.242;2022-11-25T07:01:12;95382.34;;;6.01;100.00
8298;BME280;4187;42.778;23.242;2022-11-25T07:03:40;95359.44;;;5.92;100.00
8298;BME280;4187;42.778;23.242;2022-11-25T07:06:07;95381.97;;;6.06;100.00
8298;BME280;4187;42.778;23.242;2022-11-25T07:08:34;95377.75;;;6.16;100.00
8298;BME280;4187;42.778;23.242;2022-11-25T07:11:03;95391.91;;;6.14;100.00
8298;BME280;4187;42.778;23.242;2022-11-25T07:13:31;95395.47;;;6.13;100.00
8298;BME280;4187;42.778;23.242;2022-11-25T07:16:00;95361.72;;;5.97;100.00
8298;BME280;4187;42.778;23.242;2022-11-25T07:18:30;95382.25;;;6.14;100.00
8298;BME280;4187;42.778;23.242;2022-11-25T07:21:04;95391.41;;;6.20;100.00
8298;BME280;4187;42.778;23.242;2022-11-25T07:23:31;95392.25;;;6.20;100.00
8298;BME280;4187;42.778;23.242;2022-11-25T07:26:03;95376.78;;;6.17;100.00
8298;BME280;4187;42.778;23.242;2022-11-25T07:28:30;95392.66;;;6.27;100.00
8298;BME280;4187;42.778;23.242;2022-11-25T07:31:04;95393.34;;;6.29;100.00
8298;BME280;4187;42.778;23.242;2022-11-25T07:33:33;95403.88;;;6.51;100.00
8298;BME280;4187;42.778;23.242;2022-11-25T07:36:01;95405.56;;;6.85;100.00
8298;BME280;4187;42.778;23.242;2022-11-25T07:38:28;95406.41;;;7.19;100.00
8298;BME280;4187;42.778;23.242;2022-11-25T07:40:55;95409.91;;;7.51;100.00
8298;BME280;4187;42.778;23.242;2022-11-25T07:43:28;95383.38;;;7.54;100.00
8298;BME280;4187;42.778;23.242;2022-11-25T07:45:55;95415.16;;;7.94;100.00
8298;BME280;4187;42.778;23.242;2022-11-25T07:48:22;95406.13;;;8.08;100.00
8298;BME280;4187;42.778;23.242;2022-11-25T07:50:51;95436.44;;;8.43;100.00
8298;BME280;4187;42.778;23.242;2022-11-25T07:53:18;95414.88;;;8.50;100.00
8298;BME280;4187;42.778;23.242;2022-11-25T07:55:46;95429.69;;;8.71;100.00
8298;BME280;4187;42.778;23.242;2022-11-25T07:58:13;95435.63;;;8.94;100.00
8298;BME280;4187;42.778;23.242;2022-11-25T08:00:40;95422.16;;;9.18;100.00
8298;BME280;4187;42.778;23.242;2022-11-25T08:03:07;95443.81;;;9.31;100.00
8298;BME280;4187;42.778;23.242;2022-11-25T08:05:35;95429.16;;;9.38;100.00
8298;BME280;4187;42.778;23.242;2022-11-25T08:08:04;95443.72;;;9.42;100.00
8298;BME280;4187;42.778;23.242;2022-11-25T08:10:31;95435.88;;;9.51;100.00
8298;BME280;4187;42.778;23.242;2022-11-25T08:12:58;95437.44;;;9.73;100.00
8298;BME280;4187;42.778;23.242;2022-11-25T08:15:25;95428.28;;;9.68;100.00
8298;BME280;4187;42.778;23.242;2022-11-25T08:17:52;95438.13;;;9.75;100.00
8298;BME280;4187;42.778;23.242;2022-11-25T08:20:19;95446.47;;;9.90;100.00
8298;BME280;4187;42.778;23.242;2022-11-25T08:22:47;95440.84;;;10.13;100.00
8298;BME280;4187;42.778;23.242;2022-11-25T08:25:16;95444.31;;;10.33;100.00
8298;BME280;4187;42.778;23.242;2022-11-25T08:27:43;95451.56;;;10.41;100.00
8298;BME280;4187;42.778;23.242;2022-11-25T08:30:11;95436.25;;;10.54;100.00
8298;BME280;4187;42.778;23.242;2022-11-25T08:32:38;95438.00;;;10.82;100.00
8298;BME280;4187;42.778;23.242;2022-11-25T08:35:06;95442.00;;;10.96;98.60
8298;BME280;4187;42.778;23.242;2022-11-25T08:37:33;95441.88;;;10.88;99.12
8298;BME280;4187;42.778;23.242;2022-11-25T08:40:01;95440.41;;;11.12;100.00
8298;BME280;4187;42.778;23.242;2022-11-25T08:42:30;95446.28;;;11.43;96.83
8298;BME280;4187;42.778;23.242;2022-11-25T08:44:58;95449.31;;;11.48;94.15
8298;BME280;4187;42.778;23.242;2022-11-25T08:47:26;95421.03;;;11.31;92.60
8298;BME280;4187;42.778;23.242;2022-11-25T08:49:54;95441.53;;;11.47;91.76
8298;BME280;4187;42.778;23.242;2022-11-25T08:52:21;95457.09;;;11.50;95.02
8298;BME280;4187;42.778;23.242;2022-11-25T08:54:49;95453.50;;;11.41;93.61
8298;BME280;4187;42.778;23.242;2022-11-25T08:57:16;95450.06;;;11.40;94.10
8298;BME280;4187;42.778;23.242;2022-11-25T08:59:45;95451.53;;;11.53;93.53
8298;BME280;4187;42.778;23.242;2022-11-25T09:02:14;95454.03;;;11.81;93.58
8298;BME280;4187;42.778;23.242;2022-11-25T09:04:41;95454.75;;;12.01;92.57
8298;BME280;4187;42.778;23.242;2022-11-25T09:07:09;95447.91;;;12.26;91.33
8298;BME280;4187;42.778;23.242;2022-11-25T09:09:36;95458.34;;;12.45;89.29
8298;BME280;4187;42.778;23.242;2022-11-25T09:12:03;95457.13;;;12.22;89.92
8298;BME280;4187;42.778;23.242;2022-11-25T09:14:31;95454.91;;;11.99;90.52
8298;BME280;4187;42.778;23.242;2022-11-25T09:16:59;95459.13;;;11.92;91.50
8298;BME280;4187;42.778;23.242;2022-11-25T09:19:28;95465.75;;;11.42;92.39
8298;BME280;4187;42.778;23.242;2022-11-25T09:21:55;95454.25;;;11.33;94.11
8298;BME280;4187;42.778;23.242;2022-11-25T09:24:22;95452.38;;;11.43;95.68
8298;BME280;4187;42.778;23.242;2022-11-25T09:26:49;95449.66;;;11.63;93.03
8298;BME280;4187;42.778;23.242;2022-11-25T09:29:16;95450.13;;;11.85;94.24
8298;BME280;4187;42.778;23.242;2022-11-25T09:31:43;95441.31;;;11.94;92.50
8298;BME280;4187;42.778;23.242;2022-11-25T09:34:11;95455.06;;;11.98;90.10
8298;BME280;4187;42.778;23.242;2022-11-25T09:36:38;95443.50;;;12.17;90.53
8298;BME280;4187;42.778;23.242;2022-11-25T09:39:06;95444.56;;;12.06;89.75
8298;BME280;4187;42.778;23.242;2022-11-25T09:41:41;95459.25;;;12.18;90.57
8298;BME280;4187;42.778;23.242;2022-11-25T09:44:39;95461.19;;;11.98;90.52
8298;BME280;4187;42.778;23.242;2022-11-25T09:47:34;95457.13;;;12.22;90.76
8298;BME280;4187;42.778;23.242;2022-11-25T09:50:15;95465.00;;;12.14;90.06
8298;BME280;4187;42.778;23.242;2022-11-25T09:52:51;95442.34;;;11.84;89.78
8298;BME280;4187;42.778;23.242;2022-11-25T09:55:24;95455.94;;;11.62;91.73
8298;BME280;4187;42.778;23.242;2022-11-25T09:58:04;95457.66;;;11.53;91.23
8298;BME280;4187;42.778;23.242;2022-11-25T10:00:36;95458.13;;;11.39;91.60
8298;BME280;4187;42.778;23.242;2022-11-25T10:03:11;95453.56;;;11.31;92.49
8298;BME280;4187;42.778;23.242;2022-11-25T10:05:45;95455.66;;;11.28;92.19
8298;BME280;4187;42.778;23.242;2022-11-25T10:08:17;95441.09;;;11.24;93.75
8298;BME280;4187;42.778;23.242;2022-11-25T10:10:47;95422.50;;;11.06;93.87
8298;BME280;4187;42.778;23.242;2022-11-25T10:13:18;95421.97;;;11.03;94.76
8298;BME280;4187;42.778;23.242;2022-11-25T10:15:48;95449.06;;;11.05;93.76
8298;BME280;4187;42.778;23.242;2022-11-25T10:18:20;95448.50;;;11.01;94.92
8298;BME280;4187;42.778;23.242;2022-11-25T10:20:52;95454.28;;;11.24;92.75
8298;BME280;4187;42.778;23.242;2022-11-25T10:23:22;95450.75;;;11.43;92.28
8298;BME280;4187;42.778;23.242;2022-11-25T10:25:53;95454.44;;;11.50;91.86
8298;BME280;4187;42.778;23.242;2022-11-25T10:28:23;95457.66;;;11.53;91.44
8298;BME280;4187;42.778;23.242;2022-11-25T10:30:59;95442.47;;;11.55;90.22
8298;BME280;4187;42.778;23.242;2022-11-25T10:33:29;95461.06;;;11.73;90.31
8298;BME280;4187;42.778;23.242;2022-11-25T10:36:00;95454.00;;;11.91;90.64
8298;BME280;4187;42.778;23.242;2022-11-25T10:38:38;95460.34;;;11.98;87.63
8298;BME280;4187;42.778;23.242;2022-11-25T10:41:12;95446.41;;;12.23;88.75
8298;BME280;4187;42.778;23.242;2022-11-25T10:43:41;95453.28;;;12.34;87.61
8298;BME280;4187;42.778;23.242;2022-11-25T10:46:15;95460.84;;;12.29;86.28
8298;BME280;4187;42.778;23.242;2022-11-25T10:48:53;95445.56;;;12.23;87.73
8298;BME280;4187;42.778;23.242;2022-11-25T10:51:34;95449.34;;;12.03;88.29
8298;BME280;4187;42.778;23.242;2022-11-25T10:54:19;95469.03;;;11.90;88.10
8298;BME280;4187;42.778;23.242;2022-11-25T10:56:51;95470.78;;;11.99;86.81
8298;BME280;4187;42.778;23.242;2022-11-25T10:59:26;95463.00;;;11.98;86.98
8298;BME280;4187;42.778;23.242;2022-11-25T11:02:11;95472.22;;;11.94;87.99
8298;BME280;4187;42.778;23.242;2022-11-25T11:04:50;95489.59;;;11.96;88.08
8298;BME280;4187;42.778;23.242;2022-11-25T11:07:19;95480.91;;;11.86;89.08
8298;BME280;4187;42.778;23.242;2022-11-25T11:09:47;95481.38;;;11.72;88.43
8298;BME280;4187;42.778;23.242;2022-11-25T11:12:20;95480.03;;;11.59;91.21
8298;BME280;4187;42.778;23.242;2022-11-25T11:14:47;95484.69;;;11.74;91.45
8298;BME280;4187;42.778;23.242;2022-11-25T11:17:30;95481.75;;;11.77;91.30
8298;BME280;4187;42.778;23.242;2022-11-25T11:20:03;95479.78;;;11.79;90.57
8298;BME280;4187;42.778;23.242;2022-11-25T11:22:46;95484.56;;;11.76;90.36
8298;BME280;4187;42.778;23.242;2022-11-25T11:25:28;95472.03;;;11.78;90.69
8298;BME280;4187;42.778;23.242;2022-11-25T11:27:55;95472.13;;;12.04;94.42
8298;BME280;4187;42.778;23.242;2022-11-25T11:30:24;95482.28;;;12.08;89.46
8298;BME280;4187;42.778;23.242;2022-11-25T11:32:58;95487.72;;;12.07;89.71
8298;BME280;4187;42.778;23.242;2022-11-25T11:35:32;95471.75;;;11.81;90.18
8298;BME280;4187;42.778;23.242;2022-11-25T11:38:08;95479.88;;;11.70;89.97
8298;BME280;4187;42.778;23.242;2022-11-25T11:40:40;95471.09;;;11.60;90.69
8298;BME280;4187;42.778;23.242;2022-11-25T11:43:33;95481.44;;;11.43;90.38
8298;BME280;4187;42.778;23.242;2022-11-25T11:46:17;95478.63;;;11.55;91.33
8298;BME280;4187;42.778;23.242;2022-11-25T11:48:55;95443.19;;;11.48;91.10
8298;BME280;4187;42.778;23.242;2022-11-25T11:51:30;95477.84;;;11.45;90.19
8298;BME280;4187;42.778;23.242;2022-11-25T11:54:05;95476.28;;;11.52;92.08
8298;BME280;4187;42.778;23.242;2022-11-25T11:56:37;95487.97;;;11.49;91.93
8298;BME280;4187;42.778;23.242;2022-11-25T11:59:22;95476.44;;;11.50;91.91
8298;BME280;4187;42.778;23.242;2022-11-25T12:02:01;95492.66;;;11.65;91.48
8298;BME280;4187;42.778;23.242;2022-11-25T12:04:36;95486.00;;;11.70;91.11
8298;BME280;4187;42.778;23.242;2022-11-25T12:07:08;95463.78;;;11.54;91.04
8298;BME280;4187;42.778;23.242;2022-11-25T12:09:46;95481.81;;;11.58;91.34
8298;BME280;4187;42.778;23.242;2022-11-25T12:12:17;95490.94;;;11.73;90.39
8298;BME280;4187;42.778;23.242;2022-11-25T12:14:48;95498.97;;;11.54;90.59
8298;BME280;4187;42.778;23.242;2022-11-25T12:17:18;95482.28;;;11.44;91.56
8298;BME280;4187;42.778;23.242;2022-11-25T12:19:52;95486.16;;;11.59;91.79
8298;BME280;4187;42.778;23.242;2022-11-25T12:22:26;95477.59;;;11.65;91.23
8298;BME280;4187;42.778;23.242;2022-11-25T12:25:03;95480.47;;;11.54;91.12
8298;BME280;4187;42.778;23.242;2022-11-25T12:27:33;95474.00;;;11.66;91.37
8298;BME280;4187;42.778;23.242;2022-11-25T12:30:04;95483.19;;;11.72;90.41
8298;BME280;4187;42.778;23.242;2022-11-25T12:32:48;95484.78;;;11.82;91.22
8298;BME280;4187;42.778;23.242;2022-11-25T12:35:24;95491.53;;;11.67;90.38
8298;BME280;4187;42.778;23.242;2022-11-25T12:38:02;95487.69;;;11.52;90.82
8298;BME280;4187;42.778;23.242;2022-11-25T12:40:35;95482.34;;;11.34;92.68
8298;BME280;4187;42.778;23.242;2022-11-25T12:43:23;95493.56;;;11.46;93.23
8298;BME280;4187;42.778;23.242;2022-11-25T12:45:59;95482.41;;;11.52;91.91
8298;BME280;4187;42.778;23.242;2022-11-25T12:48:28;95485.53;;;11.38;92.68
8298;BME280;4187;42.778;23.242;2022-11-25T12:51:01;95474.03;;;11.20;94.30
8298;BME280;4187;42.778;23.242;2022-11-25T12:53:37;95475.31;;;11.16;93.39
8298;BME280;4187;42.778;23.242;2022-11-25T12:56:13;95474.66;;;11.41;95.15
8298;BME280;4187;42.778;23.242;2022-11-25T12:58:51;95473.53;;;11.80;92.77
8298;BME280;4187;42.778;23.242;2022-11-25T13:01:37;95468.09;;;11.82;91.97
8298;BME280;4187;42.778;23.242;2022-11-25T13:04:22;95455.81;;;11.90;90.97
8298;BME280;4187;42.778;23.242;2022-11-25T13:10:16;95448.19;;;11.51;91.76
8298;BME280;4187;42.778;23.242;2022-11-25T13:12:56;95438.75;;;11.11;92.79
8298;BME280;4187;42.778;23.242;2022-11-25T13:15:29;95464.06;;;11.04;93.10
8298;BME280;4187;42.778;23.242;2022-11-25T13:17:58;95467.97;;;11.10;93.87
8298;BME280;4187;42.778;23.242;2022-11-25T13:20:44;95470.56;;;11.19;93.93
8298;BME280;4187;42.778;23.242;2022-11-25T13:23:22;95458.91;;;11.12;94.35
8298;BME280;4187;42.778;23.242;2022-11-25T13:25:50;95470.03;;;11.16;94.42
8298;BME280;4187;42.778;23.242;2022-11-25T13:28:30;95456.44;;;11.11;93.72
8298;BME280;4187;42.778;23.242;2022-11-25T13:31:18;95453.34;;;11.06;94.54